createdAt,value
2022-09-04T00:00:01.689Z,101499.47
2022-09-04T00:02:24.854Z,101505.75
2022-09-04T00:04:34.332Z,101498.78
2022-09-04T00:06:48.557Z,101502.66
2022-09-04T00:09:08.313Z,101511.22
2022-09-04T00:11:35.929Z,101497.09
2022-09-04T00:13:51.628Z,101506.03
2022-09-04T00:16:10.467Z,101515.84
2022-09-04T00:18:31.269Z,101513.16
2022-09-04T00:20:51.170Z,101513.41
2022-09-04T00:23:03.410Z,101509.91
2022-09-04T00:25:37.672Z,101521.78
2022-09-04T00:27:45.177Z,101517.81
2022-09-04T00:30:28.405Z,101525.91
2022-09-04T00:32:59.853Z,101524.50
2022-09-04T00:35:22.526Z,101528.00
2022-09-04T00:37:32.785Z,101516.06
2022-09-04T00:40:00.587Z,101520.53
2022-09-04T00:42:05.390Z,101528.53
2022-09-04T00:44:25.845Z,101525.44
2022-09-04T00:46:41.773Z,101529.94
2022-09-04T00:49:20.398Z,101532.19
2022-09-04T00:51:47.824Z,101542.31
2022-09-04T00:54:12.603Z,101539.31
2022-09-04T00:56:32.703Z,101531.63
2022-09-04T00:59:03.428Z,101531.34
2022-09-04T01:01:05.555Z,101537.50
2022-09-04T01:03:31.408Z,101544.28
2022-09-04T01:06:19.633Z,101546.56
2022-09-04T01:08:37.731Z,101538.53
2022-09-04T01:11:16.921Z,101544.53
2022-09-04T01:13:35.321Z,101548.28
2022-09-04T01:15:37.062Z,101542.84
2022-09-04T01:17:52.486Z,101542.84
2022-09-04T01:20:15.716Z,101542.72
2022-09-04T01:22:29.337Z,101545.44
2022-09-04T01:24:59.470Z,101555.13
2022-09-04T01:27:42.579Z,101549.81
2022-09-04T01:29:56.719Z,101551.38
2022-09-04T01:32:15.182Z,101545.41
2022-09-04T01:34:35.881Z,101539.63
2022-09-04T01:37:14.173Z,101542.88
2022-09-04T01:39:20.586Z,101544.81
2022-09-04T01:41:35.143Z,101541.28
2022-09-04T01:43:40.296Z,101547.03
2022-09-04T01:46:03.474Z,101553.19
2022-09-04T01:48:06.020Z,101550.19
2022-09-04T01:50:20.341Z,101539.84
2022-09-04T01:52:45.326Z,101542.59
2022-09-04T01:54:52.973Z,101546.88
2022-09-04T01:57:24.393Z,101548.47
2022-09-04T02:00:00.547Z,101542.47
2022-09-04T02:02:12.705Z,101541.03
2022-09-04T02:04:39.940Z,101544.09
2022-09-04T02:06:50.830Z,101549.19
2022-09-04T02:09:02.799Z,101542.06
2022-09-04T02:11:28.212Z,101538.09
2022-09-04T02:13:54.531Z,101544.75
2022-09-04T02:16:18.395Z,101538.59
2022-09-04T02:18:48.884Z,101552.69
2022-09-04T02:21:02.855Z,101542.72
2022-09-04T02:23:15.531Z,101550.75
2022-09-04T02:25:47.864Z,101550.75
2022-09-04T02:28:27.756Z,101544.50
2022-09-04T02:30:38.090Z,101555.38
2022-09-04T02:32:58.651Z,101552.38
2022-09-04T02:35:21.348Z,101552.97
2022-09-04T02:37:54.810Z,101556.97
2022-09-04T02:40:02.417Z,101559.84
2022-09-04T02:42:24.695Z,101554.72
2022-09-04T02:44:46.931Z,101549.03
2022-09-04T02:47:24.083Z,101552.41
2022-09-04T02:49:39.031Z,101553.25
2022-09-04T02:52:03.952Z,101549.91
2022-09-04T02:54:30.558Z,101553.63
2022-09-04T02:56:58.632Z,101559.78
2022-09-04T02:59:19.011Z,101559.16
2022-09-04T03:01:49.624Z,101561.94
2022-09-04T03:04:28.620Z,101558.06
2022-09-04T03:06:50.984Z,101570.09
2022-09-04T03:09:02.168Z,101566.38
2022-09-04T03:11:18.162Z,101562.41
2022-09-04T03:13:46.557Z,101564.22
2022-09-04T03:16:17.812Z,101560.97
2022-09-04T03:19:03.789Z,101559.88
2022-09-04T03:21:18.074Z,101561.31
2022-09-04T03:23:32.973Z,101553.13
2022-09-04T03:25:41.022Z,101557.84
2022-09-04T03:27:42.889Z,101552.53
2022-09-04T03:30:08.098Z,101543.88
2022-09-04T03:32:25.017Z,101529.91
2022-09-04T03:34:47.915Z,101551.19
2022-09-04T03:37:01.267Z,101556.25
2022-09-04T03:39:08.776Z,101558.31
2022-09-04T03:41:22.199Z,101566.47
2022-09-04T03:43:35.835Z,101567.91
2022-09-04T03:45:38.554Z,101568.16
2022-09-04T03:47:40.290Z,101569.84
2022-09-04T03:50:09.990Z,101569.94
2022-09-04T03:52:20.371Z,101569.47
2022-09-04T03:54:30.840Z,101569.69
2022-09-04T03:57:03.819Z,101571.28
2022-09-04T03:59:07.875Z,101571.16
2022-09-04T04:01:47.125Z,101572.84
2022-09-04T04:04:17.926Z,101570.94
2022-09-04T04:06:28.712Z,101576.44
2022-09-04T04:08:58.090Z,101581.38
2022-09-04T04:11:15.468Z,101574.66
2022-09-04T04:13:17.239Z,101573.44
2022-09-04T04:15:30.987Z,101579.69
2022-09-04T04:17:47.975Z,101571.00
2022-09-04T04:19:57.513Z,101584.25
2022-09-04T04:22:36.817Z,101588.97
2022-09-04T04:24:56.840Z,101597.16
2022-09-04T04:27:04.524Z,101591.84
2022-09-04T04:29:49.763Z,101596.19
2022-09-04T04:32:00.359Z,101597.38
2022-09-04T04:34:19.420Z,101595.81
2022-09-04T04:36:37.381Z,101610.41
2022-09-04T04:38:57.722Z,101608.88
2022-09-04T04:41:17.864Z,101613.22
2022-09-04T04:43:22.360Z,101611.53
2022-09-04T04:45:24.377Z,101613.47
2022-09-04T04:47:35.433Z,101618.28
2022-09-04T04:50:04.751Z,101616.16
2022-09-04T04:52:26.924Z,101611.38
2022-09-04T04:54:40.341Z,101609.00
2022-09-04T04:57:19.786Z,101616.97
2022-09-04T04:59:51.675Z,101621.63
2022-09-04T05:01:59.567Z,101622.16
2022-09-04T05:04:09.988Z,101620.59
2022-09-04T05:06:29.017Z,101631.22
2022-09-04T05:08:42.734Z,101626.19
2022-09-04T05:11:15.481Z,101624.41
2022-09-04T05:13:46.118Z,101628.13
2022-09-04T05:16:09.827Z,101627.84
2022-09-04T05:18:18.233Z,101626.88
2022-09-04T05:20:50.672Z,101629.88
2022-09-04T05:23:40.579Z,101630.03
2022-09-04T05:26:00.480Z,101629.25
2022-09-04T05:28:40.719Z,101626.78
2022-09-04T05:30:54.540Z,101631.84
2022-09-04T05:32:59.929Z,101635.22
2022-09-04T05:35:24.933Z,101636.63
2022-09-04T05:37:56.240Z,101642.50
2022-09-04T05:40:13.062Z,101643.50
2022-09-04T05:42:38.933Z,101645.66
2022-09-04T05:45:12.996Z,101648.66
2022-09-04T05:47:20.823Z,101643.13
2022-09-04T05:49:41.127Z,101647.59
2022-09-04T05:51:55.172Z,101654.22
2022-09-04T05:54:04.881Z,101654.84
2022-09-04T05:56:21.329Z,101659.75
2022-09-04T05:59:07.423Z,101653.97
2022-09-04T06:01:33.519Z,101661.47
2022-09-04T06:03:35.279Z,101657.94
2022-09-04T06:06:06.509Z,101658.56
2022-09-04T06:08:17.422Z,101664.25
2022-09-04T06:10:34.393Z,101659.25
2022-09-04T06:12:52.316Z,101667.31
2022-09-04T06:15:21.887Z,101669.44
2022-09-04T06:17:40.457Z,101670.00
2022-09-04T06:20:21.079Z,101670.47
2022-09-04T06:22:28.792Z,101662.94
2022-09-04T06:24:38.300Z,101658.72
2022-09-04T06:26:42.690Z,101660.19
2022-09-04T06:29:09.438Z,101669.34
2022-09-04T06:31:49.435Z,101650.72
2022-09-04T06:34:23.118Z,101667.53
2022-09-04T06:36:36.641Z,101665.84
2022-09-04T06:39:10.865Z,101670.25
2022-09-04T06:41:30.614Z,101664.38
2022-09-04T06:43:48.677Z,101670.88
2022-09-04T06:46:02.371Z,101678.00
2022-09-04T06:48:17.633Z,101679.69
2022-09-04T06:50:34.280Z,101671.47
2022-09-04T06:53:14.457Z,101680.75
2022-09-04T06:55:41.823Z,101677.03
2022-09-04T06:58:15.493Z,101684.00
2022-09-04T07:00:20.584Z,101672.84
2022-09-04T07:02:45.773Z,101682.25
2022-09-04T07:04:50.511Z,101650.78
2022-09-04T07:06:52.315Z,101684.69
2022-09-04T07:09:18.793Z,101689.09
2022-09-04T07:11:40.697Z,101689.06
2022-09-04T07:14:12.819Z,101691.44
2022-09-04T07:16:36.554Z,101692.03
2022-09-04T07:18:56.457Z,101692.28
2022-09-04T07:21:13.702Z,101702.75
2022-09-04T07:23:25.747Z,101704.13
2022-09-04T07:25:30.409Z,101700.78
2022-09-04T07:27:50.923Z,101703.97
2022-09-04T07:30:13.952Z,101709.34
2022-09-04T07:32:29.460Z,101700.91
2022-09-04T07:34:34.023Z,101699.72
2022-09-04T07:36:57.343Z,101700.38
2022-09-04T07:39:04.855Z,101695.50
2022-09-04T07:41:11.077Z,101703.47
2022-09-04T07:43:45.246Z,101701.84
2022-09-04T07:45:53.096Z,101713.34
2022-09-04T07:48:05.893Z,101711.94
2022-09-04T07:50:35.976Z,101709.66
2022-09-04T07:52:52.568Z,101716.00
2022-09-04T07:55:03.622Z,101718.25
2022-09-04T07:57:28.164Z,101719.00
2022-09-04T08:00:12.016Z,101711.97
2022-09-04T08:02:40.693Z,101711.03
2022-09-04T08:04:51.357Z,101716.41
2022-09-04T08:07:01.468Z,101709.69
2022-09-04T08:09:21.836Z,101714.63
2022-09-04T08:11:32.664Z,101719.41
2022-09-04T08:14:10.900Z,101712.34
2022-09-04T08:16:35.630Z,101721.81
2022-09-04T08:18:49.342Z,101718.03
2022-09-04T08:21:12.499Z,101713.44
2022-09-04T08:23:36.187Z,101718.59
2022-09-04T08:26:19.861Z,101720.81
2022-09-04T08:28:51.437Z,101721.41
2022-09-04T08:31:19.130Z,101724.38
2022-09-04T08:33:35.136Z,101720.84
2022-09-04T08:35:55.592Z,101728.00
2022-09-04T08:38:06.289Z,101723.28
2022-09-04T08:40:22.149Z,101728.66
2022-09-04T08:42:56.782Z,101735.16
2022-09-04T08:45:32.309Z,101733.41
2022-09-04T08:48:34.224Z,101741.81
2022-09-04T08:50:58.131Z,101743.91
2022-09-04T08:53:41.640Z,101738.41
2022-09-04T08:55:57.315Z,101738.44
2022-09-04T08:57:59.030Z,101743.78
2022-09-04T09:00:18.286Z,101750.47
2022-09-04T09:02:41.980Z,101750.66
2022-09-04T09:05:21.500Z,101748.69
2022-09-04T09:07:59.736Z,101744.56
2022-09-04T09:10:38.862Z,101742.50
2022-09-04T09:12:46.738Z,101739.59
2022-09-04T09:15:14.421Z,101740.50
2022-09-04T09:17:36.584Z,101744.09
2022-09-04T09:20:14.834Z,101751.13
2022-09-04T09:22:55.513Z,101748.19
2022-09-04T09:25:14.758Z,101751.00
2022-09-04T09:27:53.624Z,101746.69
2022-09-04T09:30:17.347Z,101744.03
2022-09-04T09:32:31.370Z,101745.16
2022-09-04T09:34:39.093Z,101743.94
2022-09-04T09:36:57.713Z,101744.34
2022-09-04T09:38:59.597Z,101744.94
2022-09-04T09:41:40.796Z,101747.03
2022-09-04T09:44:03.605Z,101743.38
2022-09-04T09:46:20.668Z,101744.91
2022-09-04T09:48:43.733Z,101744.66
2022-09-04T09:51:22.189Z,101743.97
2022-09-04T09:54:05.655Z,101748.53
2022-09-04T09:56:54.817Z,101740.28
2022-09-04T09:59:17.827Z,101731.91
2022-09-04T10:01:25.513Z,101737.19
2022-09-04T10:03:39.392Z,101729.50
2022-09-04T10:06:11.850Z,101740.72
2022-09-04T10:08:44.156Z,101738.72
2022-09-04T10:11:07.516Z,101734.78
2022-09-04T10:13:47.923Z,101742.91
2022-09-04T10:16:22.515Z,101736.44
2022-09-04T10:18:27.058Z,101734.31
2022-09-04T10:20:47.474Z,101734.00
2022-09-04T10:23:17.442Z,101739.81
2022-09-04T10:25:41.721Z,101737.91
2022-09-04T10:28:01.838Z,101731.53
2022-09-04T10:30:15.445Z,101733.34
2022-09-04T10:32:32.363Z,101735.34
2022-09-04T10:35:11.199Z,101730.94
2022-09-04T10:37:29.273Z,101728.53
2022-09-04T10:39:43.669Z,101720.53
2022-09-04T10:42:04.515Z,101724.03
2022-09-04T10:44:31.098Z,101727.78
2022-09-04T10:46:56.553Z,101733.38
2022-09-04T10:49:11.655Z,101732.44
2022-09-04T10:51:22.226Z,101726.69
2022-09-04T10:53:37.124Z,101729.50
2022-09-04T10:55:57.666Z,101723.84
2022-09-04T10:58:02.171Z,101721.94
2022-09-04T11:00:27.437Z,101726.13
2022-09-04T11:03:06.723Z,101722.94
2022-09-04T11:05:17.414Z,101733.44
2022-09-04T11:07:55.832Z,101731.72
2022-09-04T11:10:28.945Z,101739.66
2022-09-04T11:12:52.353Z,101733.69
2022-09-04T11:15:02.849Z,101729.94
2022-09-04T11:17:10.475Z,101723.97
2022-09-04T11:19:49.420Z,101726.75
2022-09-04T11:22:21.801Z,101726.88
2022-09-04T11:25:02.335Z,101721.69
2022-09-04T11:27:35.617Z,101731.94
2022-09-04T11:29:52.555Z,101721.34
2022-09-04T11:32:16.542Z,101721.28
2022-09-04T11:34:45.863Z,101726.59
2022-09-04T11:36:59.691Z,101722.06
2022-09-04T11:39:42.439Z,101721.84
2022-09-04T11:42:19.926Z,101727.63
2022-09-04T11:44:55.647Z,101722.50
2022-09-04T11:47:12.024Z,101716.28
2022-09-04T11:49:37.253Z,101713.25
2022-09-04T11:51:56.607Z,101718.56
2022-09-04T11:54:33.399Z,101713.22
2022-09-04T11:56:59.856Z,101718.22
2022-09-04T11:59:24.629Z,101713.50
2022-09-04T12:01:32.325Z,101721.56
2022-09-04T12:03:55.445Z,101707.34
2022-09-04T12:06:03.232Z,101708.16
2022-09-04T12:08:13.914Z,101710.16
2022-09-04T12:10:58.428Z,101707.00
2022-09-04T12:13:14.948Z,101699.88
2022-09-04T12:15:50.159Z,101700.91
2022-09-04T12:17:58.008Z,101708.34
2022-09-04T12:20:19.152Z,101710.06
2022-09-04T12:22:42.480Z,101712.25
2022-09-04T12:25:19.852Z,101707.47
2022-09-04T12:27:45.799Z,101711.75
2022-09-04T12:29:54.270Z,101703.59
2022-09-04T12:31:56.063Z,101705.38
2022-09-04T12:34:00.958Z,101705.03
2022-09-04T12:36:33.599Z,101697.16
2022-09-04T12:38:50.666Z,101703.81
2022-09-04T12:41:10.912Z,101695.69
2022-09-04T12:43:33.535Z,101693.00
2022-09-04T12:45:43.471Z,101690.16
2022-09-04T12:47:57.634Z,101694.72
2022-09-04T12:50:15.831Z,101700.22
2022-09-04T12:52:41.037Z,101694.31
2022-09-04T12:54:59.738Z,101700.59
2022-09-04T12:57:22.522Z,101699.59
2022-09-04T12:59:40.313Z,101699.72
2022-09-04T13:02:03.737Z,101694.53
2022-09-04T13:04:08.624Z,101696.72
2022-09-04T13:06:52.849Z,101697.06
2022-09-04T13:09:07.015Z,101699.03
2022-09-04T13:11:40.258Z,101701.72
2022-09-04T13:13:51.132Z,101698.88
2022-09-04T13:16:09.408Z,101703.34
2022-09-04T13:18:33.012Z,101698.53
2022-09-04T13:20:47.514Z,101690.16
2022-09-04T13:23:16.874Z,101700.16
2022-09-04T13:25:57.952Z,101703.72
2022-09-04T13:28:27.467Z,101698.13
2022-09-04T13:30:32.071Z,101701.03
2022-09-04T13:33:01.484Z,101704.66
2022-09-04T13:35:06.255Z,101711.13
2022-09-04T13:37:22.598Z,101706.28
2022-09-04T13:39:27.558Z,101698.19
2022-09-04T13:41:38.258Z,101706.00
2022-09-04T13:44:04.730Z,101704.59
2022-09-04T13:46:13.419Z,101702.41
2022-09-04T13:48:56.556Z,101705.03
2022-09-04T13:51:29.533Z,101708.44
2022-09-04T13:53:56.605Z,101711.16
2022-09-04T13:56:03.988Z,101704.00
2022-09-04T13:58:35.202Z,101711.94
2022-09-04T14:00:44.681Z,101709.03
2022-09-04T14:02:51.673Z,101710.06
2022-09-04T14:05:02.234Z,101697.16
2022-09-04T14:07:13.693Z,101704.03
2022-09-04T14:09:16.834Z,101706.16
2022-09-04T14:12:01.199Z,101702.81
2022-09-04T14:14:12.075Z,101702.59
2022-09-04T14:16:14.134Z,101704.88
2022-09-04T14:18:37.550Z,101694.47
2022-09-04T14:20:54.999Z,101704.22
2022-09-04T14:23:22.474Z,101703.19
2022-09-04T14:25:45.320Z,101706.06
2022-09-04T14:27:58.882Z,101693.66
2022-09-04T14:30:04.569Z,101699.22
2022-09-04T14:32:17.047Z,101704.16
2022-09-04T14:34:54.734Z,101702.03
2022-09-04T14:37:21.056Z,101701.03
2022-09-04T14:39:34.918Z,101701.34
2022-09-04T14:41:45.411Z,101710.22
2022-09-04T14:44:02.166Z,101714.06
2022-09-04T14:46:10.092Z,101706.41
2022-09-04T14:48:13.051Z,101702.25
2022-09-04T14:50:17.912Z,101710.03
2022-09-04T14:52:29.095Z,101703.50
2022-09-04T14:54:35.765Z,101702.50
2022-09-04T14:57:03.994Z,101708.56
2022-09-04T14:59:25.994Z,101706.69
2022-09-04T15:01:30.442Z,101715.78
2022-09-04T15:03:37.656Z,101717.78
2022-09-04T15:05:53.893Z,101711.19
2022-09-04T15:08:06.059Z,101709.88
2022-09-04T15:10:13.797Z,101712.59
2022-09-04T15:12:36.211Z,101707.72
2022-09-04T15:14:38.123Z,101711.13
2022-09-04T15:16:40.382Z,101711.78
2022-09-04T15:18:56.887Z,101709.78
2022-09-04T15:21:12.947Z,101703.03
2022-09-04T15:23:27.164Z,101711.31
2022-09-04T15:25:58.335Z,101705.75
2022-09-04T15:28:08.771Z,101696.56
2022-09-04T15:30:23.107Z,101709.03
2022-09-04T15:32:38.990Z,101710.47
2022-09-04T15:34:41.181Z,101704.91
2022-09-04T15:36:43.258Z,101690.09
2022-09-04T15:38:52.555Z,101700.13
2022-09-04T15:41:15.066Z,101700.50
2022-09-04T15:43:16.268Z,101701.66
2022-09-04T15:45:24.302Z,101700.53
2022-09-04T15:48:15.346Z,101709.00
2022-09-04T15:50:31.469Z,101704.75
2022-09-04T15:52:47.349Z,101713.13
2022-09-04T15:55:18.961Z,101701.50
2022-09-04T15:57:48.554Z,101713.03
2022-09-04T16:00:11.956Z,101711.81
2022-09-04T16:02:45.613Z,101714.56
2022-09-04T16:04:58.205Z,101712.31
2022-09-04T16:07:14.320Z,101724.84
2022-09-04T16:09:31.300Z,101722.25
2022-09-04T16:11:46.462Z,101722.06
2022-09-04T16:13:51.002Z,101725.41
2022-09-04T16:16:06.671Z,101724.09
2022-09-04T16:18:18.531Z,101728.28
2022-09-04T16:21:14.943Z,101725.50
2022-09-04T16:23:27.381Z,101729.56
2022-09-04T16:25:32.746Z,101728.09
2022-09-04T16:27:46.175Z,101726.97
2022-09-04T16:29:50.009Z,101730.22
2022-09-04T16:31:54.629Z,101735.44
2022-09-04T16:34:00.927Z,101742.19
2022-09-04T16:36:10.474Z,101734.78
2022-09-04T16:38:33.838Z,101745.19
2022-09-04T16:40:56.722Z,101742.78
2022-09-04T16:43:01.439Z,101749.84
2022-09-04T16:45:06.226Z,101745.06
2022-09-04T16:47:19.642Z,101745.72
2022-09-04T16:49:46.895Z,101743.31
2022-09-04T16:52:00.362Z,101740.91
2022-09-04T16:54:11.102Z,101755.91
2022-09-04T16:56:23.648Z,101757.31
2022-09-04T16:58:35.063Z,101758.84
2022-09-04T17:00:55.764Z,101764.50
2022-09-04T17:03:09.873Z,101767.63
2022-09-04T17:05:19.684Z,101772.72
2022-09-04T17:07:29.408Z,101765.53
2022-09-04T17:10:18.391Z,101769.78
2022-09-04T17:12:44.552Z,101772.06
2022-09-04T17:14:57.731Z,101780.34
2022-09-04T17:17:30.696Z,101782.34
2022-09-04T17:19:34.260Z,101767.81
2022-09-04T17:29:00.617Z,101786.13
2022-09-04T17:29:03.379Z,101782.69
2022-09-04T17:29:09.384Z,101784.53
2022-09-04T17:29:49.074Z,101784.19
2022-09-04T17:32:28.350Z,101777.63
2022-09-04T17:40:32.517Z,101749.53
2022-09-04T17:40:46.824Z,101790.97
2022-09-04T17:40:55.087Z,101797.31
2022-09-04T17:42:18.628Z,101800.22
2022-09-04T17:44:29.845Z,101806.25
2022-09-04T17:46:37.939Z,101805.59
2022-09-04T17:48:45.095Z,101807.25
2022-09-04T17:50:54.019Z,101809.94
2022-09-04T17:53:03.296Z,101816.34
2022-09-04T17:55:13.000Z,101828.13
2022-09-04T17:57:32.396Z,101829.97
2022-09-04T17:59:44.960Z,101835.00
2022-09-04T18:02:28.837Z,101829.63
2022-09-04T18:04:50.823Z,101839.34
2022-09-04T18:07:51.778Z,101843.56
2022-09-04T18:10:02.209Z,101842.22
2022-09-04T18:12:22.533Z,101846.25
2022-09-04T18:15:14.956Z,101850.78
2022-09-04T18:17:33.034Z,101856.63
2022-09-04T18:19:43.533Z,101854.16
2022-09-04T18:22:25.062Z,101856.63
2022-09-04T18:24:43.012Z,101861.00
2022-09-04T18:27:01.332Z,101858.00
2022-09-04T18:32:51.742Z,101857.84
2022-09-04T18:37:11.681Z,101861.31
2022-09-04T18:37:18.795Z,101859.50
2022-09-04T18:37:44.959Z,101873.03
2022-09-04T18:39:35.822Z,101872.09
2022-09-04T18:46:17.758Z,101873.25
2022-09-04T18:50:28.112Z,101874.72
2022-09-04T18:50:47.145Z,101880.91
2022-09-04T18:50:49.355Z,101877.56
2022-09-04T18:52:42.975Z,101883.03
2022-09-04T18:54:50.433Z,101885.91
2022-09-04T18:57:06.684Z,101885.22
2022-09-04T18:59:31.966Z,101891.09
2022-09-04T19:02:13.544Z,101889.91
2022-09-04T19:04:18.856Z,101886.97
2022-09-04T19:06:47.934Z,101855.06
2022-09-04T19:08:51.826Z,101896.19
2022-09-04T19:10:58.140Z,101889.97
2022-09-04T19:13:20.699Z,101905.72
2022-09-04T19:15:45.922Z,101908.38
2022-09-04T19:17:55.088Z,101907.03
2022-09-04T19:20:17.791Z,101906.78
2022-09-04T19:22:37.714Z,101906.09
2022-09-04T19:24:42.624Z,101894.63
2022-09-04T19:27:26.622Z,101912.41
2022-09-04T19:29:38.925Z,101914.88
2022-09-04T19:32:05.780Z,101915.63
2022-09-04T19:34:28.919Z,101921.50
2022-09-04T19:36:39.682Z,101927.19
2022-09-04T19:45:54.953Z,101924.75
2022-09-04T19:46:04.665Z,101932.66
2022-09-04T19:46:11.161Z,101932.72
2022-09-04T19:46:59.073Z,101930.06
2022-09-04T19:52:36.790Z,101928.78
2022-09-04T19:53:24.585Z,101929.13
2022-09-04T19:54:36.342Z,101922.19
2022-09-04T19:57:12.743Z,101940.22
2022-09-04T19:59:23.613Z,101938.88
2022-09-04T20:01:51.231Z,101949.66
2022-09-04T20:04:10.795Z,101950.59
2022-09-04T20:06:36.769Z,101951.50
2022-09-04T20:08:46.063Z,101961.06
2022-09-04T20:11:00.962Z,101962.59
2022-09-04T20:13:26.014Z,101961.28
2022-09-04T20:15:31.547Z,101957.41
2022-09-04T20:18:18.214Z,101961.13
2022-09-04T20:20:27.141Z,101953.09
2022-09-04T20:22:35.453Z,101946.06
2022-09-04T20:24:59.848Z,101958.59
2022-09-04T20:27:29.466Z,101962.75
2022-09-04T20:29:37.691Z,101965.72
2022-09-04T20:32:19.968Z,101967.56
2022-09-04T20:34:39.697Z,101963.44
2022-09-04T20:36:49.063Z,101968.81
2022-09-04T20:39:12.687Z,101969.09
2022-09-04T20:41:56.493Z,101969.94
2022-09-04T20:44:06.869Z,101973.69
2022-09-04T20:51:00.441Z,101975.06
2022-09-04T20:52:57.016Z,101978.19
2022-09-04T20:52:57.423Z,101969.50
2022-09-04T20:54:32.392Z,101977.66
2022-09-04T20:57:31.534Z,101978.47
2022-09-04T21:03:22.270Z,101981.69
2022-09-04T21:03:23.714Z,101982.44
2022-09-04T21:04:50.267Z,101991.44
2022-09-04T21:07:04.667Z,101988.72
2022-09-04T21:09:30.889Z,101999.56
2022-09-04T21:11:41.221Z,102001.06
2022-09-04T21:13:52.907Z,102000.41
2022-09-04T21:16:29.584Z,102008.09
2022-09-04T21:19:27.831Z,102011.50
2022-09-04T21:21:48.791Z,102013.34
2022-09-04T21:24:12.783Z,102017.13
2022-09-04T21:26:23.773Z,102020.41
2022-09-04T21:28:45.059Z,102018.72
2022-09-04T21:31:06.123Z,102006.22
2022-09-04T21:33:27.835Z,102022.97
2022-09-04T21:36:26.093Z,102023.81
2022-09-04T21:39:02.593Z,102028.41
2022-09-04T21:41:16.741Z,102031.09
2022-09-04T21:43:40.250Z,102032.94
2022-09-04T21:46:14.674Z,102031.47
2022-09-04T21:49:08.175Z,102037.66
2022-09-04T21:51:39.792Z,102041.66
2022-09-04T21:53:47.821Z,102045.56
2022-09-04T22:00:56.310Z,102043.25
2022-09-04T22:02:35.610Z,102048.50
2022-09-04T22:02:38.280Z,102045.09
2022-09-04T22:04:04.013Z,102051.75
2022-09-04T22:09:30.245Z,102052.72
2022-09-04T22:13:38.742Z,102053.59
2022-09-04T22:13:44.167Z,102052.72
2022-09-04T22:14:43.827Z,102050.81
2022-09-04T22:17:26.979Z,102052.63
2022-09-04T22:19:46.961Z,102052.22
2022-09-04T22:22:17.129Z,102057.00
2022-09-04T22:25:00.373Z,102057.16
2022-09-04T22:27:56.543Z,102052.94
2022-09-04T22:30:20.526Z,102066.84
2022-09-04T22:32:58.002Z,102063.91
2022-09-04T22:35:08.524Z,102060.13
2022-09-04T22:37:58.858Z,102061.38
2022-09-04T22:40:18.298Z,102060.81
2022-09-04T22:42:28.027Z,102057.72
2022-09-04T22:44:59.374Z,102061.81
2022-09-04T22:47:32.775Z,102052.69
2022-09-04T22:50:05.487Z,102059.72
2022-09-04T22:52:45.725Z,102062.50
2022-09-04T22:55:36.539Z,102067.09
2022-09-04T22:57:56.330Z,102063.59
2022-09-04T23:00:09.362Z,102066.69
2022-09-04T23:05:13.530Z,102064.44
2022-09-04T23:13:44.686Z,102068.59
2022-09-04T23:13:44.903Z,102060.75
2022-09-04T23:13:57.221Z,102054.84
2022-09-04T23:15:19.431Z,102067.16
2022-09-04T23:18:44.365Z,102065.94
2022-09-04T23:26:35.249Z,102070.25
2022-09-04T23:26:44.646Z,102067.81
2022-09-04T23:26:44.826Z,102067.66
2022-09-04T23:28:28.569Z,102068.75
2022-09-04T23:30:46.891Z,102068.78
2022-09-04T23:33:10.148Z,102073.53
2022-09-04T23:35:29.627Z,102074.97
2022-09-04T23:38:08.827Z,102075.50
2022-09-04T23:40:19.990Z,102052.91
2022-09-04T23:43:13.205Z,102079.78
2022-09-04T23:45:31.998Z,102072.66
2022-09-04T23:48:04.755Z,102080.03
2022-09-04T23:50:52.965Z,102080.81
2022-09-04T23:53:13.363Z,102078.28
2022-09-04T23:55:58.595Z,102087.78
2022-09-04T23:58:00.177Z,102083.47
